Pineview, Mississippi
Current Conditions -  °F | °C
As of 5:35 PM on Saturday 22 Nov 2014 (Local Time) from KPIB Reporting Station
Broken Clouds Broken Clouds  
Wind Chill: 61°   Ceiling: 3300
Heat Index: 61°   Visibility: 10mi
Dew Point: 52°   Wind: 0mph
Humidity: 72%   Direction: NA
Pressure: 30.09"   Gusts: NA
Location:  31.6875°N, 89.1116°W
Report Text: KPIB 222335Z AUTO 00000KT 10SM BKN033 16/11 A3009 RMK AO1
Loading
Personal Weather Stations






























Interactive Weather Map New forecast layout! Learn more

10-Day Weather Forecast

Advertisements
Track Severe Weather on mobile